Fronteira, Brazil
Current Conditions -  °F | °C
As of 11:00 AM on Saturday 25 Oct 2014 (Local Time) from SBSR Reporting Station
Light Rain Light Rain  
Wind Chill: 72°   Ceiling: 7000
Heat Index: 72°   Visibility: 5mi
Dew Point: 66°   Wind: 7mph
Humidity: 83%   Direction: 70°ENE
Pressure: 30.06"   Gusts: NA
Location:  20.27°S, 49.2°W
Report Text: SBSR 251300Z 07006KT 8000 -RA SCT010 OVC070 22/19 Q1018
Loading
Personal Weather Stations






























Interactive Weather Map
Tropical Storm Tracking
New forecast layout! Learn more

10-Day Weather Forecast

Advertisements
Track Severe Weather on mobile